ZJSY

Sanya Phoenix

Airport
ICAO code
ZJSY
Summary
ICAO Region
APAC
ICAO Territory
Location

Sanya, Hainan,

Serving
Sanya
Coordinates
18° 18' 14" N , 109° 24' 44" E
KCC
Metar
ZJSY 241800Z 15003MPS 110V200 6000 -TSRA FEW011 SCT020 FEW026CB BKN050 27/26 Q1006 BECMG AT1830 NSW SCT020 BKN050

Description

Sanya Phoenix International Airport is an airport in Sanya, Hainan, People’s Republic of China (IATA: SYX). It is located about 15 km northwest of the city center.

Climatology

Tropical Monsoon climate (Köppen climate classification Am) - monthly mean temperatures above 18°C in every month of the year and features wet and dry seasons.

Airport map

Aerial View

SKYbrary Partners:

Safety knowledge contributed by: